createdAt,value
2024-04-14T00:01:11.726Z,16.42
2024-04-14T00:03:38.601Z,16.41
2024-04-14T00:06:05.902Z,16.40
2024-04-14T00:08:32.847Z,16.36
2024-04-14T00:10:59.850Z,16.35
2024-04-14T00:13:26.811Z,16.31
2024-04-14T00:15:59.958Z,16.19
2024-04-14T00:18:29.679Z,16.15
2024-04-14T00:20:57.141Z,16.10
2024-04-14T00:23:23.976Z,16.05
2024-04-14T00:25:50.844Z,16.00
2024-04-14T00:28:17.641Z,15.98
2024-04-14T00:30:44.548Z,15.97
2024-04-14T00:33:11.428Z,15.97
2024-04-14T00:35:41.609Z,15.91
2024-04-14T00:38:08.936Z,15.88
2024-04-14T00:40:35.758Z,15.82
2024-04-14T00:43:02.660Z,15.73
2024-04-14T00:45:29.558Z,15.73
2024-04-14T00:47:56.574Z,15.76
2024-04-14T00:50:23.946Z,15.76
2024-04-14T00:52:53.966Z,15.78
2024-04-14T00:55:20.784Z,15.75
2024-04-14T00:57:48.169Z,15.77
2024-04-14T01:00:15.115Z,15.77
2024-04-14T01:02:42.629Z,15.53
2024-04-14T01:05:09.504Z,15.64
2024-04-14T01:07:36.297Z,15.68
2024-04-14T01:10:06.468Z,15.71
2024-04-14T01:12:33.353Z,15.70
2024-04-14T01:15:00.237Z,15.70
2024-04-14T01:17:27.179Z,15.72
2024-04-14T01:19:54.069Z,15.77
2024-04-14T01:22:20.887Z,15.76
2024-04-14T01:24:48.132Z,15.70
2024-04-14T01:27:17.615Z,15.61
2024-04-14T01:29:44.510Z,15.66
2024-04-14T01:32:11.392Z,15.58
2024-04-14T01:34:38.269Z,15.65
2024-04-14T01:37:05.068Z,15.72
2024-04-14T01:39:31.923Z,15.79
2024-04-14T01:41:58.715Z,15.82
2024-04-14T01:44:28.154Z,15.82
2024-04-14T01:46:55.421Z,15.79
2024-04-14T01:49:22.339Z,15.73
2024-04-14T01:51:49.340Z,15.68
2024-04-14T01:54:16.237Z,15.63
2024-04-14T01:56:43.009Z,15.64
2024-04-14T01:59:09.875Z,15.62
2024-04-14T02:01:39.547Z,15.48
2024-04-14T02:04:06.610Z,15.50
2024-04-14T02:06:33.514Z,15.46
2024-04-14T02:09:00.403Z,15.43
2024-04-14T02:11:27.272Z,15.39
2024-04-14T02:13:54.167Z,15.34
2024-04-14T02:16:20.974Z,15.30
2024-04-14T02:18:50.442Z,15.31
2024-04-14T02:21:17.479Z,15.31
2024-04-14T02:23:44.295Z,15.23
2024-04-14T02:26:11.154Z,15.21
2024-04-14T02:28:37.948Z,15.19
2024-04-14T02:31:05.002Z,15.16
2024-04-14T02:33:31.876Z,15.17
2024-04-14T02:36:02.026Z,15.13
2024-04-14T02:38:28.996Z,15.02
2024-04-14T02:40:56.983Z,14.91
2024-04-14T02:43:23.817Z,14.96
2024-04-14T02:45:50.657Z,14.89
2024-04-14T02:48:17.567Z,14.86
2024-04-14T02:50:44.429Z,14.61
2024-04-14T02:53:13.841Z,14.35
2024-04-14T02:55:40.731Z,14.28
2024-04-14T02:58:08.295Z,14.30
2024-04-14T03:00:35.208Z,14.28
2024-04-14T03:03:02.231Z,14.29
2024-04-14T03:05:29.224Z,14.27
2024-04-14T03:07:56.045Z,14.29
2024-04-14T03:10:25.482Z,14.30
2024-04-14T03:12:52.327Z,14.34
2024-04-14T03:15:19.271Z,14.26
2024-04-14T03:17:46.141Z,14.28
2024-04-14T03:20:13.023Z,14.31
2024-04-14T03:22:40.244Z,14.21
2024-04-14T03:25:08.188Z,14.23
2024-04-14T03:27:37.860Z,14.21
2024-04-14T03:30:05.380Z,14.20
2024-04-14T03:32:32.290Z,14.17
2024-04-14T03:35:01.927Z,14.15
2024-04-14T03:37:28.794Z,14.19
2024-04-14T03:39:55.623Z,14.19
2024-04-14T03:42:22.655Z,14.23
2024-04-14T03:44:52.118Z,14.22
2024-04-14T03:47:18.958Z,14.24
2024-04-14T03:49:45.824Z,14.22
2024-04-14T03:52:13.273Z,14.16
2024-04-14T03:54:40.070Z,14.13
2024-04-14T03:57:06.869Z,14.14
2024-04-14T03:59:35.196Z,14.13
2024-04-14T04:02:06.981Z,14.07
2024-04-14T04:04:33.906Z,14.13
2024-04-14T04:07:00.740Z,14.08
2024-04-14T04:09:27.620Z,14.12
2024-04-14T04:11:54.671Z,14.04
2024-04-14T04:14:21.631Z,13.92
2024-04-14T04:16:50.638Z,13.84
2024-04-14T04:19:26.116Z,13.81
2024-04-14T04:21:54.596Z,13.80
2024-04-14T04:24:24.991Z,13.72
2024-04-14T04:26:52.432Z,13.73
2024-04-14T04:29:19.236Z,13.71
2024-04-14T04:31:46.021Z,13.66
2024-04-14T04:34:12.866Z,13.60
2024-04-14T04:36:44.976Z,13.58
2024-04-14T04:39:11.854Z,13.55
2024-04-14T04:41:38.817Z,13.52
2024-04-14T04:44:05.653Z,13.56
2024-04-14T04:46:32.478Z,13.55
2024-04-14T04:48:59.371Z,13.56
2024-04-14T04:51:26.208Z,13.58
2024-04-14T04:53:55.689Z,13.56
2024-04-14T04:56:22.664Z,13.60
2024-04-14T04:58:49.466Z,13.59
2024-04-14T05:01:16.363Z,13.50
2024-04-14T05:03:43.291Z,13.41
2024-04-14T05:06:10.172Z,13.47
2024-04-14T05:08:36.974Z,13.46
2024-04-14T05:11:06.619Z,13.42
2024-04-14T05:13:33.446Z,13.45
2024-04-14T05:16:00.387Z,13.43
2024-04-14T05:18:27.481Z,13.43
2024-04-14T05:20:54.389Z,13.40
2024-04-14T05:23:21.213Z,13.44
2024-04-14T05:25:49.188Z,13.43
2024-04-14T05:28:18.674Z,13.50
2024-04-14T05:30:46.868Z,13.47
2024-04-14T05:33:13.745Z,13.50
2024-04-14T05:35:40.578Z,13.48
2024-04-14T05:38:07.373Z,13.49
2024-04-14T05:40:34.697Z,13.46
2024-04-14T05:43:01.548Z,13.48
2024-04-14T05:45:31.132Z,13.45
2024-04-14T05:47:58.209Z,13.49
2024-04-14T05:50:25.136Z,13.52
2024-04-14T05:52:52.079Z,13.56
2024-04-14T05:55:18.888Z,13.51
2024-04-14T05:57:45.809Z,13.59
2024-04-14T06:00:12.904Z,13.67
2024-04-14T06:02:45.916Z,13.70
2024-04-14T06:05:12.764Z,13.75
2024-04-14T06:07:39.610Z,13.78
2024-04-14T06:10:07.267Z,13.84
2024-04-14T06:12:34.167Z,13.93
2024-04-14T06:15:01.122Z,13.99
2024-04-14T06:17:28.086Z,14.02
2024-04-14T06:19:58.011Z,14.09
2024-04-14T06:22:24.958Z,14.11
2024-04-14T06:24:51.827Z,14.14
2024-04-14T06:27:18.726Z,14.18
2024-04-14T06:29:45.819Z,14.23
2024-04-14T06:32:12.669Z,14.32
2024-04-14T06:34:39.534Z,14.37
2024-04-14T06:37:09.061Z,14.47
2024-04-14T06:39:35.945Z,14.62
2024-04-14T06:42:02.929Z,14.66
2024-04-14T06:44:29.721Z,14.81
2024-04-14T06:46:56.803Z,14.86
2024-04-14T06:49:23.673Z,14.93
2024-04-14T06:51:50.524Z,15.07
2024-04-14T06:54:20.034Z,15.07
2024-04-14T06:56:46.882Z,15.11
2024-04-14T06:59:13.707Z,15.20
2024-04-14T07:01:40.671Z,15.34
2024-04-14T07:04:07.743Z,15.43
2024-04-14T07:06:34.709Z,15.57
2024-04-14T07:09:01.688Z,15.63
2024-04-14T07:11:31.278Z,15.69
2024-04-14T07:13:58.186Z,15.49
2024-04-14T07:16:25.063Z,15.68
2024-04-14T07:18:51.926Z,15.71
2024-04-14T07:21:18.768Z,15.75
2024-04-14T07:23:45.564Z,15.91
2024-04-14T07:26:12.424Z,16.04
2024-04-14T07:28:41.878Z,16.05
2024-04-14T07:31:08.877Z,16.11
2024-04-14T07:33:35.883Z,16.25
2024-04-14T07:36:02.813Z,16.32
2024-04-14T07:38:29.589Z,16.27
2024-04-14T07:40:56.450Z,16.32
2024-04-14T07:43:23.373Z,16.32
2024-04-14T07:45:52.863Z,16.32
2024-04-14T07:48:20.211Z,16.35
2024-04-14T07:50:47.184Z,16.36
2024-04-14T07:53:14.125Z,16.44
2024-04-14T07:55:40.992Z,16.46
2024-04-14T07:58:07.987Z,16.60
2024-04-14T08:00:35.153Z,16.56
2024-04-14T08:03:05.015Z,16.56
2024-04-14T08:05:34.624Z,16.59
2024-04-14T08:08:02.492Z,16.56
2024-04-14T08:10:29.400Z,16.45
2024-04-14T08:13:01.505Z,16.47
2024-04-14T08:15:29.887Z,16.34
2024-04-14T08:17:56.800Z,16.44
2024-04-14T08:20:26.258Z,16.46
2024-04-14T08:22:54.263Z,16.50
2024-04-14T08:25:21.286Z,16.72
2024-04-14T08:27:48.387Z,16.70
2024-04-14T08:30:15.295Z,16.55
2024-04-14T08:32:42.820Z,16.47
2024-04-14T08:35:09.746Z,16.73
2024-04-14T08:37:39.298Z,17.02
2024-04-14T08:40:07.228Z,17.20
2024-04-14T08:42:34.418Z,17.14
2024-04-14T08:45:01.359Z,17.18
2024-04-14T08:47:28.157Z,17.31
2024-04-14T08:49:55.064Z,17.23
2024-04-14T08:52:21.891Z,17.36
2024-04-14T08:54:51.336Z,17.21
2024-04-14T08:57:18.192Z,17.02
2024-04-14T08:59:45.045Z,17.11
2024-04-14T09:02:12.009Z,17.42
2024-04-14T09:04:40.128Z,17.60
2024-04-14T09:07:07.267Z,17.75
2024-04-14T09:09:34.118Z,17.95
2024-04-14T09:12:03.958Z,17.93
2024-04-14T09:14:30.836Z,17.60
2024-04-14T09:16:57.772Z,17.57
2024-04-14T09:19:24.612Z,17.70
2024-04-14T09:21:51.439Z,17.83
2024-04-14T09:24:18.331Z,17.78
2024-04-14T09:26:45.221Z,17.92
2024-04-14T09:29:14.737Z,18.08
2024-04-14T09:31:41.968Z,18.18
2024-04-14T09:34:08.896Z,18.16
2024-04-14T09:36:35.885Z,18.31
2024-04-14T09:39:03.283Z,18.54
2024-04-14T09:41:30.172Z,18.43
2024-04-14T09:43:57.057Z,18.29
2024-04-14T09:46:26.547Z,18.39
2024-04-14T09:48:53.536Z,18.47
2024-04-14T09:51:20.431Z,18.75
2024-04-14T09:53:47.378Z,18.75
2024-04-14T09:56:14.169Z,18.88
2024-04-14T09:58:41.046Z,18.84
2024-04-14T10:01:09.795Z,19.08
2024-04-14T10:03:39.629Z,19.16
2024-04-14T10:06:06.660Z,18.72
2024-04-14T10:08:34.158Z,18.73
2024-04-14T10:11:02.319Z,18.94
2024-04-14T10:13:29.390Z,18.82
2024-04-14T10:15:56.276Z,18.95
2024-04-14T10:18:25.041Z,18.65
2024-04-14T10:20:54.571Z,18.95
2024-04-14T10:23:21.566Z,18.77
2024-04-14T10:25:48.921Z,18.58
2024-04-14T10:28:16.891Z,18.53
2024-04-14T10:30:43.806Z,18.48
2024-04-14T10:33:18.823Z,18.69
2024-04-14T10:35:45.949Z,19.11
2024-04-14T10:38:22.235Z,19.40
2024-04-14T10:40:49.567Z,19.59
2024-04-14T10:43:16.481Z,19.84
2024-04-14T10:45:43.449Z,19.46
2024-04-14T10:48:10.336Z,19.52
2024-04-14T10:50:38.937Z,19.60
2024-04-14T10:53:05.769Z,19.83
2024-04-14T10:55:35.208Z,20.13
2024-04-14T10:58:02.183Z,20.08
2024-04-14T11:00:29.474Z,20.25
2024-04-14T11:02:56.474Z,20.41
2024-04-14T11:05:23.874Z,20.56
2024-04-14T11:07:50.873Z,20.69
2024-04-14T11:10:17.797Z,20.64
2024-04-14T11:12:47.209Z,20.80
2024-04-14T11:15:15.173Z,20.86
2024-04-14T11:17:42.645Z,20.89
2024-04-14T11:20:13.328Z,21.09
2024-04-14T11:22:40.178Z,21.04
2024-04-14T11:25:08.807Z,21.23
2024-04-14T11:27:35.660Z,21.28
2024-04-14T11:30:05.868Z,21.20
2024-04-14T11:32:36.477Z,21.15
2024-04-14T11:35:03.504Z,21.26
2024-04-14T11:37:30.573Z,21.43
2024-04-14T11:39:57.484Z,21.55
2024-04-14T11:42:24.389Z,21.46
2024-04-14T11:44:51.198Z,21.53
2024-04-14T11:47:20.815Z,21.39
2024-04-14T11:49:47.697Z,21.60
2024-04-14T11:52:14.598Z,21.75
2024-04-14T11:54:41.613Z,21.84
2024-04-14T11:57:08.454Z,22.01
2024-04-14T11:59:35.258Z,21.69
2024-04-14T12:02:02.059Z,21.79
2024-04-14T12:04:31.548Z,21.89
2024-04-14T12:06:58.438Z,21.58
2024-04-14T12:09:25.305Z,21.85
2024-04-14T12:11:52.122Z,22.02
2024-04-14T12:14:18.970Z,21.91
2024-04-14T12:16:45.800Z,22.17
2024-04-14T12:19:12.636Z,22.04
2024-04-14T12:21:42.343Z,22.29
2024-04-14T12:24:11.479Z,22.40
2024-04-14T12:26:38.849Z,22.44
2024-04-14T12:29:05.757Z,22.44
2024-04-14T12:31:32.645Z,22.69
2024-04-14T12:33:59.693Z,22.89
2024-04-14T12:36:26.684Z,23.16
2024-04-14T12:38:56.105Z,23.39
2024-04-14T12:41:22.958Z,23.54
2024-04-14T12:43:49.808Z,23.71
2024-04-14T12:46:16.923Z,23.81
2024-04-14T12:48:43.852Z,23.52
2024-04-14T12:51:10.724Z,23.65
2024-04-14T12:53:37.656Z,23.30
2024-04-14T12:56:07.576Z,23.38
2024-04-14T12:58:34.472Z,23.52
2024-04-14T13:01:01.378Z,23.77
2024-04-14T13:03:28.434Z,23.98
2024-04-14T13:05:56.233Z,24.02
2024-04-14T13:08:23.757Z,24.17
2024-04-14T13:10:50.705Z,24.26
2024-04-14T13:13:20.422Z,24.33
2024-04-14T13:15:47.394Z,24.38
2024-04-14T13:18:14.324Z,24.55
2024-04-14T13:20:41.119Z,24.72
2024-04-14T13:23:07.932Z,24.73
2024-04-14T13:25:34.738Z,24.88
2024-04-14T13:28:01.691Z,24.89
2024-04-14T13:30:31.329Z,25.12
2024-04-14T13:32:58.319Z,25.27
2024-04-14T13:35:25.305Z,25.30
2024-04-14T13:37:52.129Z,25.39
2024-04-14T13:40:19.037Z,25.05
2024-04-14T13:42:46.025Z,25.06
2024-04-14T13:45:12.949Z,24.95
2024-04-14T13:47:42.514Z,25.03
2024-04-14T13:50:09.416Z,25.06
2024-04-14T13:52:36.346Z,25.24
2024-04-14T13:55:04.143Z,25.25
2024-04-14T13:57:31.904Z,25.17
2024-04-14T13:59:58.756Z,25.40
2024-04-14T14:02:25.669Z,25.54
2024-04-14T14:04:55.315Z,25.79
2024-04-14T14:07:22.905Z,25.89
2024-04-14T14:09:50.017Z,25.97
2024-04-14T14:12:16.911Z,25.93
2024-04-14T14:14:43.877Z,26.04
2024-04-14T14:17:10.727Z,26.04
2024-04-14T14:19:37.615Z,26.05
2024-04-14T14:22:07.297Z,26.10
2024-04-14T14:24:36.551Z,26.24
2024-04-14T14:27:04.663Z,26.31
2024-04-14T14:29:31.510Z,26.41
2024-04-14T14:31:58.347Z,26.48
2024-04-14T14:34:25.681Z,26.34
2024-04-14T14:36:52.652Z,26.33
2024-04-14T14:39:22.871Z,26.33
2024-04-14T14:41:49.738Z,26.29
2024-04-14T14:44:16.572Z,26.48
2024-04-14T14:46:43.493Z,26.62
2024-04-14T14:49:10.602Z,26.77
2024-04-14T14:51:38.302Z,26.92
2024-04-14T14:54:07.148Z,26.70
2024-04-14T14:56:37.644Z,26.83
2024-04-14T14:59:04.590Z,26.93
2024-04-14T15:01:31.643Z,26.80
2024-04-14T15:03:58.648Z,26.89
2024-04-14T15:06:25.666Z,27.07
2024-04-14T15:08:52.554Z,27.26
2024-04-14T15:11:19.904Z,27.28
2024-04-14T15:13:49.756Z,27.52
2024-04-14T15:16:16.768Z,27.56
2024-04-14T15:18:43.853Z,27.60
2024-04-14T15:21:10.845Z,27.59
2024-04-14T15:23:37.692Z,27.56
2024-04-14T15:26:05.106Z,27.57
2024-04-14T15:28:32.382Z,27.62
2024-04-14T15:31:02.344Z,27.84
2024-04-14T15:33:29.252Z,27.82
2024-04-14T15:35:56.048Z,27.97
2024-04-14T15:38:23.045Z,28.06
2024-04-14T15:40:49.917Z,28.07
2024-04-14T15:43:17.353Z,28.11
2024-04-14T15:45:44.421Z,28.21
2024-04-14T15:48:14.020Z,28.22
2024-04-14T15:50:40.916Z,28.08
2024-04-14T15:53:07.832Z,28.25
2024-04-14T15:55:37.266Z,28.48
2024-04-14T15:58:04.405Z,28.45
2024-04-14T16:00:31.299Z,28.31
2024-04-14T16:02:58.218Z,28.43
2024-04-14T16:05:27.713Z,28.46
2024-04-14T16:07:54.580Z,27.95
2024-04-14T16:10:21.497Z,28.24
2024-04-14T16:12:48.468Z,27.98
2024-04-14T16:15:15.266Z,28.35
2024-04-14T16:17:42.305Z,28.16
2024-04-14T16:20:09.464Z,28.36
2024-04-14T16:22:40.267Z,27.98
2024-04-14T16:25:09.983Z,27.86
2024-04-14T16:27:37.193Z,27.83
2024-04-14T16:30:04.875Z,28.02
2024-04-14T16:32:34.522Z,28.39
2024-04-14T16:35:01.420Z,28.62
2024-04-14T16:37:28.344Z,28.79
2024-04-14T16:39:57.936Z,29.03
2024-04-14T16:42:24.744Z,29.15
2024-04-14T16:44:51.776Z,29.19
2024-04-14T16:47:18.763Z,29.04
2024-04-14T16:49:45.589Z,28.96
2024-04-14T16:52:12.632Z,28.66
2024-04-14T16:54:39.518Z,28.37
2024-04-14T16:57:10.447Z,28.07
2024-04-14T16:59:37.580Z,28.41
2024-04-14T17:02:04.688Z,28.33
2024-04-14T17:04:31.759Z,28.24
2024-04-14T17:06:58.848Z,28.17
2024-04-14T17:09:25.675Z,28.39
2024-04-14T17:11:52.464Z,28.84
2024-04-14T17:14:21.913Z,29.20
2024-04-14T17:16:48.747Z,29.48
2024-04-14T17:19:15.657Z,29.22
2024-04-14T17:21:42.517Z,28.78
2024-04-14T17:24:09.474Z,28.43
2024-04-14T17:26:36.363Z,27.98
2024-04-14T17:29:03.166Z,27.49
2024-04-14T17:31:32.593Z,27.42
2024-04-14T17:33:59.507Z,27.30
2024-04-14T17:36:26.324Z,27.15
2024-04-14T17:38:53.154Z,27.03
2024-04-14T17:41:19.979Z,26.99
2024-04-14T17:43:46.935Z,26.86
2024-04-14T17:46:14.565Z,26.74
2024-04-14T17:48:44.067Z,26.61
2024-04-14T17:51:10.879Z,26.48
2024-04-14T17:53:37.702Z,26.32
2024-04-14T17:56:04.783Z,26.21
2024-04-14T17:58:31.625Z,26.12
2024-04-14T18:00:58.598Z,25.98
2024-04-14T18:03:26.615Z,25.92
2024-04-14T18:05:56.272Z,25.85
2024-04-14T18:08:23.161Z,25.75
2024-04-14T18:10:49.950Z,25.66
2024-04-14T18:13:17.126Z,25.57
2024-04-14T18:15:43.937Z,25.52
2024-04-14T18:18:10.863Z,25.43
2024-04-14T18:20:37.722Z,25.34
2024-04-14T18:23:07.207Z,25.23
2024-04-14T18:25:34.087Z,25.17
2024-04-14T18:28:00.966Z,25.06
2024-04-14T18:30:27.854Z,24.88
2024-04-14T18:32:54.758Z,24.78
2024-04-14T18:35:21.610Z,24.51
2024-04-14T18:37:48.500Z,24.34
2024-04-14T18:40:18.398Z,24.05
2024-04-14T18:42:45.272Z,23.79
2024-04-14T18:45:12.279Z,23.56
2024-04-14T18:47:39.175Z,23.40
2024-04-14T18:50:07.335Z,23.16
2024-04-14T18:52:34.441Z,23.00
2024-04-14T18:55:01.349Z,23.02
2024-04-14T18:57:31.007Z,22.98
2024-04-14T18:59:57.944Z,22.87
2024-04-14T19:02:25.378Z,22.87
2024-04-14T19:04:52.552Z,22.63
2024-04-14T19:07:19.464Z,22.69
2024-04-14T19:09:46.808Z,22.76
2024-04-14T19:12:13.913Z,22.79
2024-04-14T19:14:43.487Z,22.74
2024-04-14T19:17:10.325Z,22.85
2024-04-14T19:19:37.205Z,22.86
2024-04-14T19:22:05.025Z,22.84
2024-04-14T19:24:32.072Z,22.79
2024-04-14T19:26:59.292Z,22.87
2024-04-14T19:29:26.154Z,22.88
2024-04-14T19:31:56.170Z,22.79
2024-04-14T19:34:23.192Z,22.83
2024-04-14T19:36:50.070Z,22.67
2024-04-14T19:39:16.988Z,22.71
2024-04-14T19:41:43.977Z,22.79
2024-04-14T19:44:11.029Z,22.74
2024-04-14T19:46:41.771Z,22.65
2024-04-14T19:49:12.108Z,22.61
2024-04-14T19:51:39.144Z,22.59
2024-04-14T19:54:06.115Z,22.57
2024-04-14T19:56:33.041Z,22.58
2024-04-14T19:59:00.004Z,22.52
2024-04-14T20:01:26.994Z,22.49
2024-04-14T20:03:53.995Z,22.42
2024-04-14T20:06:23.540Z,22.35
2024-04-14T20:08:50.852Z,22.27
2024-04-14T20:11:17.970Z,21.90
2024-04-14T20:13:44.843Z,21.91
2024-04-14T20:16:11.921Z,21.95
2024-04-14T20:18:39.310Z,21.94
2024-04-14T20:21:06.385Z,21.90
2024-04-14T20:23:36.216Z,21.87
2024-04-14T20:26:03.949Z,21.83
2024-04-14T20:28:30.887Z,21.82
2024-04-14T20:30:57.813Z,21.73
2024-04-14T20:33:24.686Z,21.60
2024-04-14T20:35:56.372Z,21.56
2024-04-14T20:38:23.234Z,21.47
2024-04-14T20:40:56.045Z,21.43
2024-04-14T20:43:22.866Z,21.13
2024-04-14T20:45:49.782Z,21.28
2024-04-14T20:48:16.728Z,21.25
2024-04-14T20:50:43.580Z,21.22
2024-04-14T20:53:10.393Z,21.17
2024-04-14T20:55:37.205Z,21.17
2024-04-14T20:58:06.781Z,21.16
2024-04-14T21:00:37.004Z,21.13
2024-04-14T21:03:04.537Z,21.13
2024-04-14T21:05:31.369Z,21.12
2024-04-14T21:07:58.258Z,21.04
2024-04-14T21:10:25.145Z,21.02
2024-04-14T21:12:52.112Z,20.98
2024-04-14T21:15:24.384Z,21.04
2024-04-14T21:17:51.515Z,21.14
2024-04-14T21:20:18.402Z,21.15
2024-04-14T21:22:46.694Z,21.08
2024-04-14T21:25:13.604Z,21.08
2024-04-14T21:27:40.523Z,20.99
2024-04-14T21:30:08.246Z,20.89
2024-04-14T21:32:37.772Z,20.84
2024-04-14T21:35:05.077Z,20.78
2024-04-14T21:37:31.932Z,20.73
2024-04-14T21:39:58.992Z,20.71
2024-04-14T21:42:25.887Z,20.76
2024-04-14T21:44:55.704Z,20.74
2024-04-14T21:47:24.171Z,20.73
2024-04-14T21:49:54.398Z,20.66
2024-04-14T21:52:21.280Z,20.64
2024-04-14T21:54:51.113Z,20.46
2024-04-14T21:57:17.999Z,20.52
2024-04-14T21:59:44.929Z,20.52
2024-04-14T22:02:11.796Z,20.47
2024-04-14T22:04:38.680Z,20.42
2024-04-14T22:07:08.443Z,20.44
2024-04-14T22:09:35.270Z,20.43
2024-04-14T22:12:02.099Z,20.42
2024-04-14T22:14:29.048Z,20.42
2024-04-14T22:16:55.996Z,20.41
2024-04-14T22:19:22.990Z,20.43
2024-04-14T22:21:49.977Z,20.44
2024-04-14T22:24:19.566Z,20.47
2024-04-14T22:26:46.500Z,20.45
2024-04-14T22:29:13.805Z,20.45
2024-04-14T22:31:40.652Z,20.46
2024-04-14T22:34:08.513Z,20.43
2024-04-14T22:36:35.351Z,20.33
2024-04-14T22:39:02.325Z,20.25
2024-04-14T22:41:31.783Z,20.17
2024-04-14T22:43:58.657Z,20.12
2024-04-14T22:46:25.494Z,20.14
2024-04-14T22:48:52.331Z,20.07
2024-04-14T22:51:19.172Z,20.12
2024-04-14T22:53:45.965Z,20.07
2024-04-14T22:56:12.804Z,19.99
2024-04-14T22:58:42.244Z,19.89
2024-04-14T23:01:09.156Z,19.90
2024-04-14T23:03:36.068Z,19.91
2024-04-14T23:06:03.487Z,19.87
2024-04-14T23:08:30.968Z,19.86
2024-04-14T23:10:57.758Z,19.84
2024-04-14T23:13:24.579Z,19.77
2024-04-14T23:15:54.096Z,19.67
2024-04-14T23:18:21.137Z,19.57
2024-04-14T23:20:48.044Z,19.69
2024-04-14T23:23:14.852Z,19.78
2024-04-14T23:25:41.661Z,19.68
2024-04-14T23:28:08.522Z,19.66
2024-04-14T23:30:35.353Z,19.77
2024-04-14T23:33:05.232Z,19.81
2024-04-14T23:35:32.103Z,19.79
2024-04-14T23:37:58.933Z,19.85
2024-04-14T23:40:25.843Z,19.88
2024-04-14T23:42:52.747Z,19.82
2024-04-14T23:45:19.622Z,19.87
2024-04-14T23:47:46.600Z,19.84
2024-04-14T23:50:16.254Z,19.93
2024-04-14T23:52:43.105Z,19.89
2024-04-14T23:55:09.980Z,19.97
2024-04-14T23:57:36.835Z,19.93
